sensor_id;sensor_type;location;lat;lon;timestamp;P1;durP1;ratioP1;P2;durP2;ratioP2
37483;SDS011;23337;52.212;9.926;2023-04-06T00:01:51;10.27;;;7.93;;
37483;SDS011;23337;52.212;9.926;2023-04-06T00:04:17;9.27;;;7.50;;
37483;SDS011;23337;52.212;9.926;2023-04-06T00:06:43;8.63;;;7.33;;
37483;SDS011;23337;52.212;9.926;2023-04-06T00:09:09;9.67;;;8.50;;
37483;SDS011;23337;52.212;9.926;2023-04-06T00:11:35;10.10;;;7.63;;
37483;SDS011;23337;52.212;9.926;2023-04-06T00:14:01;9.43;;;6.83;;
37483;SDS011;23337;52.212;9.926;2023-04-06T00:16:27;8.63;;;7.50;;
37483;SDS011;23337;52.212;9.926;2023-04-06T00:18:53;7.03;;;6.43;;
37483;SDS011;23337;52.212;9.926;2023-04-06T00:21:20;8.13;;;7.27;;
37483;SDS011;23337;52.212;9.926;2023-04-06T00:23:46;7.93;;;7.13;;
37483;SDS011;23337;52.212;9.926;2023-04-06T00:26:12;10.03;;;6.73;;
37483;SDS011;23337;52.212;9.926;2023-04-06T00:28:38;9.37;;;8.17;;
37483;SDS011;23337;52.212;9.926;2023-04-06T00:31:04;9.13;;;7.17;;
37483;SDS011;23337;52.212;9.926;2023-04-06T00:33:30;9.03;;;7.53;;
37483;SDS011;23337;52.212;9.926;2023-04-06T00:35:56;7.90;;;7.10;;
37483;SDS011;23337;52.212;9.926;2023-04-06T00:38:22;11.27;;;7.67;;
37483;SDS011;23337;52.212;9.926;2023-04-06T00:40:48;7.63;;;6.83;;
37483;SDS011;23337;52.212;9.926;2023-04-06T00:43:14;7.83;;;7.07;;
37483;SDS011;23337;52.212;9.926;2023-04-06T00:45:40;9.03;;;8.13;;
37483;SDS011;23337;52.212;9.926;2023-04-06T00:48:07;11.23;;;8.27;;
37483;SDS011;23337;52.212;9.926;2023-04-06T00:50:34;7.93;;;7.23;;
37483;SDS011;23337;52.212;9.926;2023-04-06T00:53:00;8.67;;;7.57;;
37483;SDS011;23337;52.212;9.926;2023-04-06T00:55:26;8.43;;;7.00;;
37483;SDS011;23337;52.212;9.926;2023-04-06T00:57:53;11.73;;;8.03;;
37483;SDS011;23337;52.212;9.926;2023-04-06T01:00:22;8.37;;;7.57;;
37483;SDS011;23337;52.212;9.926;2023-04-06T01:02:48;8.97;;;7.20;;
37483;SDS011;23337;52.212;9.926;2023-04-06T01:05:14;8.07;;;7.27;;
37483;SDS011;23337;52.212;9.926;2023-04-06T01:07:40;8.93;;;7.37;;
37483;SDS011;23337;52.212;9.926;2023-04-06T01:10:06;8.60;;;6.83;;
37483;SDS011;23337;52.212;9.926;2023-04-06T01:12:32;8.93;;;8.07;;
37483;SDS011;23337;52.212;9.926;2023-04-06T01:14:59;8.17;;;6.90;;
37483;SDS011;23337;52.212;9.926;2023-04-06T01:17:25;8.63;;;7.20;;
37483;SDS011;23337;52.212;9.926;2023-04-06T01:19:51;8.20;;;7.50;;
37483;SDS011;23337;52.212;9.926;2023-04-06T01:22:18;9.30;;;8.07;;
37483;SDS011;23337;52.212;9.926;2023-04-06T01:24:45;9.07;;;8.17;;
37483;SDS011;23337;52.212;9.926;2023-04-06T01:27:11;9.07;;;8.20;;
37483;SDS011;23337;52.212;9.926;2023-04-06T01:29:37;14.07;;;9.67;;
37483;SDS011;23337;52.212;9.926;2023-04-06T01:32:06;20.17;;;12.77;;
37483;SDS011;23337;52.212;9.926;2023-04-06T01:34:32;16.07;;;11.47;;
37483;SDS011;23337;52.212;9.926;2023-04-06T01:36:58;11.17;;;9.53;;
37483;SDS011;23337;52.212;9.926;2023-04-06T01:39:24;9.77;;;8.27;;
37483;SDS011;23337;52.212;9.926;2023-04-06T01:41:50;8.97;;;8.17;;
37483;SDS011;23337;52.212;9.926;2023-04-06T01:44:16;9.57;;;8.17;;
37483;SDS011;23337;52.212;9.926;2023-04-06T01:46:43;9.73;;;8.27;;
37483;SDS011;23337;52.212;9.926;2023-04-06T01:49:09;9.60;;;8.70;;
37483;SDS011;23337;52.212;9.926;2023-04-06T01:51:35;9.57;;;8.67;;
37483;SDS011;23337;52.212;9.926;2023-04-06T01:54:01;10.60;;;9.07;;
37483;SDS011;23337;52.212;9.926;2023-04-06T01:56:27;9.93;;;8.03;;
37483;SDS011;23337;52.212;9.926;2023-04-06T01:58:53;10.83;;;8.50;;
37483;SDS011;23337;52.212;9.926;2023-04-06T02:01:20;8.70;;;7.87;;
37483;SDS011;23337;52.212;9.926;2023-04-06T02:03:46;10.27;;;8.07;;
37483;SDS011;23337;52.212;9.926;2023-04-06T02:06:12;11.20;;;9.23;;
37483;SDS011;23337;52.212;9.926;2023-04-06T02:08:38;8.83;;;8.00;;
37483;SDS011;23337;52.212;9.926;2023-04-06T02:11:04;9.80;;;8.07;;
37483;SDS011;23337;52.212;9.926;2023-04-06T02:13:30;9.43;;;8.43;;
37483;SDS011;23337;52.212;9.926;2023-04-06T02:15:56;10.37;;;8.70;;
37483;SDS011;23337;52.212;9.926;2023-04-06T02:18:22;11.27;;;8.67;;
37483;SDS011;23337;52.212;9.926;2023-04-06T02:20:48;10.50;;;8.87;;
37483;SDS011;23337;52.212;9.926;2023-04-06T02:23:15;10.20;;;9.03;;
37483;SDS011;23337;52.212;9.926;2023-04-06T02:25:41;9.70;;;8.73;;
37483;SDS011;23337;52.212;9.926;2023-04-06T02:28:07;11.23;;;9.23;;
37483;SDS011;23337;52.212;9.926;2023-04-06T02:30:33;11.67;;;9.00;;
37483;SDS011;23337;52.212;9.926;2023-04-06T02:32:59;11.10;;;8.67;;
37483;SDS011;23337;52.212;9.926;2023-04-06T02:35:27;9.30;;;8.37;;
37483;SDS011;23337;52.212;9.926;2023-04-06T02:37:53;9.67;;;8.33;;
37483;SDS011;23337;52.212;9.926;2023-04-06T02:40:19;9.60;;;8.60;;
37483;SDS011;23337;52.212;9.926;2023-04-06T02:42:45;9.53;;;7.53;;
37483;SDS011;23337;52.212;9.926;2023-04-06T02:45:11;9.47;;;8.30;;
37483;SDS011;23337;52.212;9.926;2023-04-06T02:47:37;8.60;;;7.77;;
37483;SDS011;23337;52.212;9.926;2023-04-06T02:50:04;11.43;;;7.63;;
37483;SDS011;23337;52.212;9.926;2023-04-06T02:52:30;8.13;;;7.40;;
37483;SDS011;23337;52.212;9.926;2023-04-06T02:54:56;10.57;;;9.20;;
37483;SDS011;23337;52.212;9.926;2023-04-06T02:57:22;8.77;;;7.87;;
37483;SDS011;23337;52.212;9.926;2023-04-06T02:59:48;8.93;;;7.73;;
37483;SDS011;23337;52.212;9.926;2023-04-06T03:02:14;8.30;;;7.47;;
37483;SDS011;23337;52.212;9.926;2023-04-06T03:04:40;8.43;;;6.83;;
37483;SDS011;23337;52.212;9.926;2023-04-06T03:07:06;9.73;;;7.90;;
37483;SDS011;23337;52.212;9.926;2023-04-06T03:09:32;8.30;;;7.50;;
37483;SDS011;23337;52.212;9.926;2023-04-06T03:11:58;8.50;;;7.60;;
37483;SDS011;23337;52.212;9.926;2023-04-06T03:14:25;9.30;;;7.90;;
37483;SDS011;23337;52.212;9.926;2023-04-06T03:16:51;7.67;;;6.87;;
37483;SDS011;23337;52.212;9.926;2023-04-06T03:19:17;7.33;;;5.97;;
37483;SDS011;23337;52.212;9.926;2023-04-06T03:21:43;7.37;;;6.50;;
37483;SDS011;23337;52.212;9.926;2023-04-06T03:24:09;6.43;;;5.80;;
37483;SDS011;23337;52.212;9.926;2023-04-06T03:26:35;8.07;;;6.40;;
37483;SDS011;23337;52.212;9.926;2023-04-06T03:29:01;5.87;;;5.30;;
37483;SDS011;23337;52.212;9.926;2023-04-06T03:31:27;7.87;;;6.07;;
37483;SDS011;23337;52.212;9.926;2023-04-06T03:33:53;6.63;;;5.80;;
37483;SDS011;23337;52.212;9.926;2023-04-06T03:36:19;7.97;;;5.50;;
37483;SDS011;23337;52.212;9.926;2023-04-06T03:38:45;6.90;;;6.00;;
37483;SDS011;23337;52.212;9.926;2023-04-06T03:41:11;6.67;;;5.90;;
37483;SDS011;23337;52.212;9.926;2023-04-06T03:43:37;7.43;;;5.77;;
37483;SDS011;23337;52.212;9.926;2023-04-06T03:46:03;7.80;;;5.63;;
37483;SDS011;23337;52.212;9.926;2023-04-06T03:48:29;6.83;;;5.53;;
37483;SDS011;23337;52.212;9.926;2023-04-06T03:50:56;9.07;;;5.63;;
37483;SDS011;23337;52.212;9.926;2023-04-06T03:53:22;8.53;;;5.90;;
37483;SDS011;23337;52.212;9.926;2023-04-06T03:55:48;7.13;;;5.73;;
37483;SDS011;23337;52.212;9.926;2023-04-06T03:58:14;6.83;;;4.63;;
37483;SDS011;23337;52.212;9.926;2023-04-06T04:00:40;6.80;;;6.20;;
37483;SDS011;23337;52.212;9.926;2023-04-06T04:03:06;5.87;;;5.27;;
37483;SDS011;23337;52.212;9.926;2023-04-06T04:05:32;6.47;;;5.50;;
37483;SDS011;23337;52.212;9.926;2023-04-06T04:07:58;6.87;;;5.63;;
37483;SDS011;23337;52.212;9.926;2023-04-06T04:10:24;6.30;;;5.20;;
37483;SDS011;23337;52.212;9.926;2023-04-06T04:12:50;7.40;;;5.87;;
37483;SDS011;23337;52.212;9.926;2023-04-06T04:15:16;7.23;;;5.47;;
37483;SDS011;23337;52.212;9.926;2023-04-06T04:17:41;6.57;;;5.97;;
37483;SDS011;23337;52.212;9.926;2023-04-06T04:20:11;6.20;;;5.50;;
37483;SDS011;23337;52.212;9.926;2023-04-06T04:22:37;6.80;;;6.07;;
37483;SDS011;23337;52.212;9.926;2023-04-06T04:25:03;6.07;;;5.13;;
37483;SDS011;23337;52.212;9.926;2023-04-06T04:27:29;5.83;;;5.23;;
37483;SDS011;23337;52.212;9.926;2023-04-06T04:29:55;8.67;;;6.23;;
37483;SDS011;23337;52.212;9.926;2023-04-06T04:32:21;7.07;;;5.77;;
37483;SDS011;23337;52.212;9.926;2023-04-06T04:34:47;7.77;;;5.87;;
37483;SDS011;23337;52.212;9.926;2023-04-06T04:37:13;7.37;;;6.03;;
37483;SDS011;23337;52.212;9.926;2023-04-06T04:39:39;6.50;;;5.87;;
37483;SDS011;23337;52.212;9.926;2023-04-06T04:42:05;6.57;;;5.17;;
37483;SDS011;23337;52.212;9.926;2023-04-06T04:44:32;9.40;;;5.77;;
37483;SDS011;23337;52.212;9.926;2023-04-06T04:46:58;8.50;;;6.20;;
37483;SDS011;23337;52.212;9.926;2023-04-06T04:49:24;7.70;;;5.90;;
37483;SDS011;23337;52.212;9.926;2023-04-06T04:51:50;6.67;;;5.43;;
37483;SDS011;23337;52.212;9.926;2023-04-06T04:54:17;10.07;;;5.83;;
37483;SDS011;23337;52.212;9.926;2023-04-06T04:56:44;7.17;;;6.00;;
37483;SDS011;23337;52.212;9.926;2023-04-06T04:59:10;7.93;;;6.17;;
37483;SDS011;23337;52.212;9.926;2023-04-06T05:01:36;9.23;;;6.33;;
37483;SDS011;23337;52.212;9.926;2023-04-06T05:04:02;8.97;;;6.43;;
37483;SDS011;23337;52.212;9.926;2023-04-06T05:06:28;10.43;;;6.83;;
37483;SDS011;23337;52.212;9.926;2023-04-06T05:08:54;8.13;;;6.97;;
37483;SDS011;23337;52.212;9.926;2023-04-06T05:11:21;7.07;;;6.23;;
37483;SDS011;23337;52.212;9.926;2023-04-06T05:13:47;9.03;;;6.93;;
37483;SDS011;23337;52.212;9.926;2023-04-06T05:16:13;9.87;;;7.30;;
37483;SDS011;23337;52.212;9.926;2023-04-06T05:18:39;9.43;;;7.43;;
37483;SDS011;23337;52.212;9.926;2023-04-06T05:21:05;7.97;;;6.80;;
37483;SDS011;23337;52.212;9.926;2023-04-06T05:23:31;10.10;;;7.33;;
37483;SDS011;23337;52.212;9.926;2023-04-06T05:25:57;9.13;;;6.83;;
37483;SDS011;23337;52.212;9.926;2023-04-06T05:28:23;9.47;;;7.20;;
37483;SDS011;23337;52.212;9.926;2023-04-06T05:30:49;8.03;;;6.37;;
37483;SDS011;23337;52.212;9.926;2023-04-06T05:33:15;7.87;;;6.70;;
37483;SDS011;23337;52.212;9.926;2023-04-06T05:35:41;8.00;;;6.90;;
37483;SDS011;23337;52.212;9.926;2023-04-06T05:38:07;8.63;;;6.33;;
37483;SDS011;23337;52.212;9.926;2023-04-06T05:40:35;8.47;;;6.70;;
37483;SDS011;23337;52.212;9.926;2023-04-06T05:43:02;10.10;;;8.07;;
37483;SDS011;23337;52.212;9.926;2023-04-06T05:45:28;11.47;;;10.27;;
37483;SDS011;23337;52.212;9.926;2023-04-06T05:47:54;14.10;;;11.63;;
37483;SDS011;23337;52.212;9.926;2023-04-06T05:50:20;13.67;;;11.50;;
37483;SDS011;23337;52.212;9.926;2023-04-06T05:52:47;10.90;;;8.07;;
37483;SDS011;23337;52.212;9.926;2023-04-06T05:55:13;10.50;;;7.77;;
37483;SDS011;23337;52.212;9.926;2023-04-06T05:57:39;8.83;;;6.93;;
37483;SDS011;23337;52.212;9.926;2023-04-06T06:00:05;7.13;;;6.40;;
37483;SDS011;23337;52.212;9.926;2023-04-06T06:02:33;7.97;;;6.83;;
37483;SDS011;23337;52.212;9.926;2023-04-06T06:04:59;8.07;;;6.67;;
37483;SDS011;23337;52.212;9.926;2023-04-06T06:07:25;6.83;;;6.20;;
37483;SDS011;23337;52.212;9.926;2023-04-06T06:09:51;8.13;;;6.03;;
37483;SDS011;23337;52.212;9.926;2023-04-06T06:12:17;7.00;;;6.27;;
37483;SDS011;23337;52.212;9.926;2023-04-06T06:14:43;7.27;;;6.10;;
37483;SDS011;23337;52.212;9.926;2023-04-06T06:17:09;10.97;;;6.63;;
37483;SDS011;23337;52.212;9.926;2023-04-06T06:19:35;7.30;;;6.03;;
37483;SDS011;23337;52.212;9.926;2023-04-06T06:22:01;10.07;;;7.03;;
37483;SDS011;23337;52.212;9.926;2023-04-06T06:24:28;10.43;;;7.50;;
37483;SDS011;23337;52.212;9.926;2023-04-06T06:26:54;8.23;;;7.27;;
37483;SDS011;23337;52.212;9.926;2023-04-06T06:29:20;8.80;;;6.27;;
37483;SDS011;23337;52.212;9.926;2023-04-06T06:31:46;8.27;;;6.10;;
37483;SDS011;23337;52.212;9.926;2023-04-06T06:34:12;7.20;;;6.33;;
37483;SDS011;23337;52.212;9.926;2023-04-06T06:36:38;10.37;;;7.17;;
37483;SDS011;23337;52.212;9.926;2023-04-06T06:39:04;9.87;;;7.60;;
37483;SDS011;23337;52.212;9.926;2023-04-06T06:41:30;9.47;;;8.43;;
37483;SDS011;23337;52.212;9.926;2023-04-06T06:43:56;8.50;;;7.60;;
37483;SDS011;23337;52.212;9.926;2023-04-06T06:46:22;11.17;;;7.47;;
37483;SDS011;23337;52.212;9.926;2023-04-06T06:48:48;9.60;;;8.60;;
37483;SDS011;23337;52.212;9.926;2023-04-06T06:51:14;9.47;;;7.20;;
37483;SDS011;23337;52.212;9.926;2023-04-06T06:53:40;10.63;;;7.00;;
37483;SDS011;23337;52.212;9.926;2023-04-06T06:56:06;7.40;;;6.33;;
37483;SDS011;23337;52.212;9.926;2023-04-06T06:58:32;9.90;;;6.20;;
37483;SDS011;23337;52.212;9.926;2023-04-06T07:00:58;8.53;;;6.43;;
37483;SDS011;23337;52.212;9.926;2023-04-06T07:03:24;6.93;;;5.97;;
37483;SDS011;23337;52.212;9.926;2023-04-06T07:05:50;7.97;;;5.90;;
37483;SDS011;23337;52.212;9.926;2023-04-06T07:08:20;8.20;;;6.53;;
37483;SDS011;23337;52.212;9.926;2023-04-06T07:10:46;6.90;;;6.00;;
37483;SDS011;23337;52.212;9.926;2023-04-06T07:13:12;9.23;;;7.70;;
37483;SDS011;23337;52.212;9.926;2023-04-06T07:15:43;7.03;;;6.27;;
37483;SDS011;23337;52.212;9.926;2023-04-06T07:18:09;6.83;;;5.50;;
37483;SDS011;23337;52.212;9.926;2023-04-06T07:20:35;6.43;;;5.77;;
37483;SDS011;23337;52.212;9.926;2023-04-06T07:23:01;7.47;;;6.63;;
37483;SDS011;23337;52.212;9.926;2023-04-06T07:25:27;6.85;;;6.00;;
37483;SDS011;23337;52.212;9.926;2023-04-06T07:27:53;7.00;;;5.67;;
37483;SDS011;23337;52.212;9.926;2023-04-06T07:30:19;6.13;;;5.30;;
37483;SDS011;23337;52.212;9.926;2023-04-06T07:32:46;5.83;;;5.23;;
37483;SDS011;23337;52.212;9.926;2023-04-06T07:35:13;6.40;;;5.53;;
37483;SDS011;23337;52.212;9.926;2023-04-06T07:37:38;7.43;;;5.73;;
37483;SDS011;23337;52.212;9.926;2023-04-06T07:40:05;7.83;;;5.63;;
37483;SDS011;23337;52.212;9.926;2023-04-06T07:42:31;9.70;;;6.17;;
37483;SDS011;23337;52.212;9.926;2023-04-06T07:44:58;7.93;;;6.10;;
37483;SDS011;23337;52.212;9.926;2023-04-06T07:47:24;9.50;;;5.80;;
37483;SDS011;23337;52.212;9.926;2023-04-06T07:49:50;7.27;;;5.23;;
37483;SDS011;23337;52.212;9.926;2023-04-06T07:52:16;6.90;;;5.17;;
37483;SDS011;23337;52.212;9.926;2023-04-06T07:54:42;8.57;;;5.90;;
37483;SDS011;23337;52.212;9.926;2023-04-06T07:57:08;6.63;;;5.80;;
37483;SDS011;23337;52.212;9.926;2023-04-06T07:59:34;9.17;;;6.10;;
37483;SDS011;23337;52.212;9.926;2023-04-06T08:02:00;7.33;;;5.83;;
37483;SDS011;23337;52.212;9.926;2023-04-06T08:04:26;7.00;;;5.53;;
37483;SDS011;23337;52.212;9.926;2023-04-06T08:06:52;8.70;;;6.13;;
37483;SDS011;23337;52.212;9.926;2023-04-06T08:09:18;7.60;;;6.27;;
37483;SDS011;23337;52.212;9.926;2023-04-06T08:11:44;6.67;;;5.93;;
37483;SDS011;23337;52.212;9.926;2023-04-06T08:14:11;10.50;;;6.17;;
37483;SDS011;23337;52.212;9.926;2023-04-06T08:16:37;5.97;;;5.37;;
37483;SDS011;23337;52.212;9.926;2023-04-06T08:19:03;7.50;;;5.90;;
37483;SDS011;23337;52.212;9.926;2023-04-06T08:21:29;8.87;;;5.77;;
37483;SDS011;23337;52.212;9.926;2023-04-06T08:23:55;10.60;;;6.17;;
37483;SDS011;23337;52.212;9.926;2023-04-06T08:26:21;7.67;;;5.97;;
37483;SDS011;23337;52.212;9.926;2023-04-06T08:28:47;6.87;;;5.47;;
37483;SDS011;23337;52.212;9.926;2023-04-06T08:31:13;6.80;;;5.93;;
37483;SDS011;23337;52.212;9.926;2023-04-06T08:33:39;7.83;;;5.57;;
37483;SDS011;23337;52.212;9.926;2023-04-06T08:36:09;7.10;;;6.37;;
37483;SDS011;23337;52.212;9.926;2023-04-06T08:38:35;7.53;;;6.13;;
37483;SDS011;23337;52.212;9.926;2023-04-06T08:41:06;7.40;;;6.13;;
37483;SDS011;23337;52.212;9.926;2023-04-06T08:43:32;7.27;;;5.50;;
37483;SDS011;23337;52.212;9.926;2023-04-06T08:45:59;7.40;;;5.73;;
37483;SDS011;23337;52.212;9.926;2023-04-06T08:48:25;7.27;;;6.40;;
37483;SDS011;23337;52.212;9.926;2023-04-06T08:50:52;7.17;;;6.10;;
37483;SDS011;23337;52.212;9.926;2023-04-06T08:53:19;7.43;;;5.93;;
37483;SDS011;23337;52.212;9.926;2023-04-06T08:55:45;7.03;;;6.33;;
37483;SDS011;23337;52.212;9.926;2023-04-06T08:58:11;9.23;;;5.97;;
37483;SDS011;23337;52.212;9.926;2023-04-06T09:00:38;6.60;;;5.90;;
37483;SDS011;23337;52.212;9.926;2023-04-06T09:03:05;6.03;;;5.37;;
37483;SDS011;23337;52.212;9.926;2023-04-06T09:05:31;9.60;;;6.40;;
37483;SDS011;23337;52.212;9.926;2023-04-06T09:07:57;7.50;;;5.60;;
37483;SDS011;23337;52.212;9.926;2023-04-06T09:10:23;6.10;;;5.50;;
37483;SDS011;23337;52.212;9.926;2023-04-06T09:12:50;8.60;;;5.77;;
37483;SDS011;23337;52.212;9.926;2023-04-06T09:15:17;6.63;;;5.93;;
37483;SDS011;23337;52.212;9.926;2023-04-06T09:17:44;6.53;;;5.23;;
37483;SDS011;23337;52.212;9.926;2023-04-06T09:20:11;6.77;;;6.07;;
37483;SDS011;23337;52.212;9.926;2023-04-06T09:22:40;6.10;;;5.40;;
37483;SDS011;23337;52.212;9.926;2023-04-06T09:25:09;6.27;;;5.43;;
37483;SDS011;23337;52.212;9.926;2023-04-06T09:27:44;6.90;;;5.90;;
37483;SDS011;23337;52.212;9.926;2023-04-06T09:30:10;6.33;;;5.70;;
37483;SDS011;23337;52.212;9.926;2023-04-06T09:32:45;6.33;;;5.73;;
37483;SDS011;23337;52.212;9.926;2023-04-06T09:35:11;8.13;;;5.83;;
37483;SDS011;23337;52.212;9.926;2023-04-06T09:37:38;7.67;;;5.87;;
37483;SDS011;23337;52.212;9.926;2023-04-06T09:40:04;6.67;;;6.00;;
37483;SDS011;23337;52.212;9.926;2023-04-06T09:42:30;5.43;;;4.93;;
37483;SDS011;23337;52.212;9.926;2023-04-06T09:44:56;6.70;;;6.00;;
37483;SDS011;23337;52.212;9.926;2023-04-06T09:47:22;6.67;;;5.97;;
37483;SDS011;23337;52.212;9.926;2023-04-06T09:49:51;6.97;;;6.20;;
37483;SDS011;23337;52.212;9.926;2023-04-06T09:52:20;5.63;;;5.13;;
37483;SDS011;23337;52.212;9.926;2023-04-06T09:54:47;6.27;;;5.47;;
37483;SDS011;23337;52.212;9.926;2023-04-06T09:57:25;6.03;;;5.43;;
37483;SDS011;23337;52.212;9.926;2023-04-06T10:02:32;8.70;;;6.17;;
37483;SDS011;23337;52.212;9.926;2023-04-06T10:05:02;7.80;;;6.20;;
37483;SDS011;23337;52.212;9.926;2023-04-06T10:07:31;5.80;;;5.20;;
37483;SDS011;23337;52.212;9.926;2023-04-06T10:09:57;6.93;;;5.63;;
37483;SDS011;23337;52.212;9.926;2023-04-06T10:12:24;6.63;;;5.70;;
37483;SDS011;23337;52.212;9.926;2023-04-06T10:14:50;7.20;;;6.03;;
37483;SDS011;23337;52.212;9.926;2023-04-06T10:17:16;7.83;;;5.77;;
37483;SDS011;23337;52.212;9.926;2023-04-06T10:22:26;6.57;;;5.87;;
37483;SDS011;23337;52.212;9.926;2023-04-06T10:24:54;7.97;;;6.30;;
37483;SDS011;23337;52.212;9.926;2023-04-06T10:27:29;7.63;;;6.30;;
37483;SDS011;23337;52.212;9.926;2023-04-06T10:30:00;6.93;;;5.97;;
37483;SDS011;23337;52.212;9.926;2023-04-06T10:32:36;7.60;;;6.73;;
37483;SDS011;23337;52.212;9.926;2023-04-06T10:35:06;7.13;;;6.03;;
37483;SDS011;23337;52.212;9.926;2023-04-06T10:37:45;7.63;;;6.83;;
37483;SDS011;23337;52.212;9.926;2023-04-06T10:40:19;7.70;;;6.93;;
37483;SDS011;23337;52.212;9.926;2023-04-06T10:42:45;8.17;;;6.47;;
37483;SDS011;23337;52.212;9.926;2023-04-06T10:45:21;7.63;;;6.50;;
37483;SDS011;23337;52.212;9.926;2023-04-06T10:47:47;8.10;;;5.83;;
37483;SDS011;23337;52.212;9.926;2023-04-06T10:50:14;7.80;;;7.00;;
37483;SDS011;23337;52.212;9.926;2023-04-06T10:52:44;6.67;;;6.03;;
37483;SDS011;23337;52.212;9.926;2023-04-06T10:55:11;6.93;;;6.17;;
37483;SDS011;23337;52.212;9.926;2023-04-06T10:57:38;7.60;;;6.63;;
37483;SDS011;23337;52.212;9.926;2023-04-06T11:00:04;9.70;;;7.47;;
37483;SDS011;23337;52.212;9.926;2023-04-06T11:02:31;7.73;;;6.83;;
37483;SDS011;23337;52.212;9.926;2023-04-06T11:04:57;8.53;;;6.93;;
37483;SDS011;23337;52.212;9.926;2023-04-06T11:07:27;7.43;;;6.67;;
37483;SDS011;23337;52.212;9.926;2023-04-06T11:09:55;8.87;;;6.93;;
37483;SDS011;23337;52.212;9.926;2023-04-06T11:12:30;9.20;;;7.00;;
37483;SDS011;23337;52.212;9.926;2023-04-06T11:15:00;8.37;;;7.57;;
37483;SDS011;23337;52.212;9.926;2023-04-06T11:17:30;7.63;;;6.83;;
37483;SDS011;23337;52.212;9.926;2023-04-06T11:19:56;7.80;;;7.00;;
37483;SDS011;23337;52.212;9.926;2023-04-06T11:22:22;7.63;;;6.93;;
37483;SDS011;23337;52.212;9.926;2023-04-06T11:24:48;8.87;;;7.57;;
37483;SDS011;23337;52.212;9.926;2023-04-06T11:27:14;9.57;;;6.87;;
37483;SDS011;23337;52.212;9.926;2023-04-06T11:29:41;8.60;;;7.70;;
37483;SDS011;23337;52.212;9.926;2023-04-06T11:32:07;8.90;;;8.00;;
37483;SDS011;23337;52.212;9.926;2023-04-06T11:34:37;9.80;;;7.40;;
37483;SDS011;23337;52.212;9.926;2023-04-06T11:37:06;8.40;;;7.50;;
37483;SDS011;23337;52.212;9.926;2023-04-06T11:39:37;9.30;;;7.33;;
37483;SDS011;23337;52.212;9.926;2023-04-06T11:42:04;8.73;;;7.77;;
37483;SDS011;23337;52.212;9.926;2023-04-06T11:44:34;7.67;;;6.80;;
37483;SDS011;23337;52.212;9.926;2023-04-06T11:47:00;11.87;;;8.23;;
37483;SDS011;23337;52.212;9.926;2023-04-06T11:49:30;8.17;;;7.47;;
37483;SDS011;23337;52.212;9.926;2023-04-06T11:51:56;7.73;;;6.97;;
37483;SDS011;23337;52.212;9.926;2023-04-06T11:54:29;10.33;;;8.73;;
37483;SDS011;23337;52.212;9.926;2023-04-06T11:56:55;10.33;;;7.90;;
37483;SDS011;23337;52.212;9.926;2023-04-06T11:59:21;8.67;;;7.70;;
37483;SDS011;23337;52.212;9.926;2023-04-06T12:01:48;8.07;;;7.27;;
37483;SDS011;23337;52.212;9.926;2023-04-06T12:04:14;9.70;;;8.17;;
37483;SDS011;23337;52.212;9.926;2023-04-06T12:06:40;7.93;;;7.13;;
37483;SDS011;23337;52.212;9.926;2023-04-06T12:09:06;9.10;;;7.77;;
37483;SDS011;23337;52.212;9.926;2023-04-06T12:11:32;8.03;;;7.23;;
37483;SDS011;23337;52.212;9.926;2023-04-06T12:13:58;8.03;;;7.33;;
37483;SDS011;23337;52.212;9.926;2023-04-06T12:16:26;8.63;;;7.73;;
37483;SDS011;23337;52.212;9.926;2023-04-06T12:18:52;8.77;;;7.87;;
37483;SDS011;23337;52.212;9.926;2023-04-06T12:21:18;8.60;;;7.70;;
37483;SDS011;23337;52.212;9.926;2023-04-06T12:23:44;9.13;;;8.03;;
37483;SDS011;23337;52.212;9.926;2023-04-06T12:26:10;10.07;;;9.17;;
37483;SDS011;23337;52.212;9.926;2023-04-06T12:28:36;8.50;;;7.70;;
37483;SDS011;23337;52.212;9.926;2023-04-06T12:31:02;9.57;;;8.63;;
37483;SDS011;23337;52.212;9.926;2023-04-06T12:33:28;8.87;;;8.07;;
37483;SDS011;23337;52.212;9.926;2023-04-06T12:35:54;8.30;;;7.47;;
37483;SDS011;23337;52.212;9.926;2023-04-06T12:38:21;9.20;;;8.30;;
37483;SDS011;23337;52.212;9.926;2023-04-06T12:40:47;8.83;;;8.03;;
37483;SDS011;23337;52.212;9.926;2023-04-06T12:43:13;8.70;;;7.80;;
37483;SDS011;23337;52.212;9.926;2023-04-06T12:45:39;10.40;;;8.20;;
37483;SDS011;23337;52.212;9.926;2023-04-06T12:48:06;9.33;;;8.23;;
37483;SDS011;23337;52.212;9.926;2023-04-06T12:50:32;9.37;;;8.30;;
37483;SDS011;23337;52.212;9.926;2023-04-06T12:52:58;9.00;;;8.10;;
37483;SDS011;23337;52.212;9.926;2023-04-06T12:55:24;9.27;;;8.37;;
37483;SDS011;23337;52.212;9.926;2023-04-06T12:57:50;9.60;;;8.27;;
37483;SDS011;23337;52.212;9.926;2023-04-06T13:00:16;8.80;;;7.90;;
37483;SDS011;23337;52.212;9.926;2023-04-06T13:02:42;8.70;;;7.67;;
37483;SDS011;23337;52.212;9.926;2023-04-06T13:05:12;8.50;;;7.70;;
37483;SDS011;23337;52.212;9.926;2023-04-06T13:07:38;8.20;;;7.40;;
37483;SDS011;23337;52.212;9.926;2023-04-06T13:10:04;8.60;;;7.70;;
37483;SDS011;23337;52.212;9.926;2023-04-06T13:12:30;7.87;;;7.07;;
37483;SDS011;23337;52.212;9.926;2023-04-06T13:14:56;8.17;;;7.13;;
37483;SDS011;23337;52.212;9.926;2023-04-06T13:17:22;8.50;;;7.47;;
37483;SDS011;23337;52.212;9.926;2023-04-06T13:19:48;8.97;;;7.23;;
37483;SDS011;23337;52.212;9.926;2023-04-06T13:22:14;8.63;;;7.73;;
37483;SDS011;23337;52.212;9.926;2023-04-06T13:24:40;7.60;;;6.87;;
37483;SDS011;23337;52.212;9.926;2023-04-06T13:27:06;8.00;;;7.17;;
37483;SDS011;23337;52.212;9.926;2023-04-06T13:29:32;8.40;;;7.23;;
37483;SDS011;23337;52.212;9.926;2023-04-06T13:31:59;12.33;;;7.40;;
37483;SDS011;23337;52.212;9.926;2023-04-06T13:34:25;10.03;;;7.13;;
37483;SDS011;23337;52.212;9.926;2023-04-06T13:36:51;8.70;;;7.77;;
37483;SDS011;23337;52.212;9.926;2023-04-06T13:39:17;9.10;;;7.17;;
37483;SDS011;23337;52.212;9.926;2023-04-06T13:41:43;8.20;;;6.17;;
37483;SDS011;23337;52.212;9.926;2023-04-06T13:44:09;7.90;;;6.10;;
37483;SDS011;23337;52.212;9.926;2023-04-06T13:46:35;6.77;;;6.03;;
37483;SDS011;23337;52.212;9.926;2023-04-06T13:49:02;7.10;;;6.40;;
37483;SDS011;23337;52.212;9.926;2023-04-06T13:51:28;9.67;;;6.50;;
37483;SDS011;23337;52.212;9.926;2023-04-06T13:53:54;7.00;;;6.13;;
37483;SDS011;23337;52.212;9.926;2023-04-06T13:56:20;7.20;;;6.50;;
37483;SDS011;23337;52.212;9.926;2023-04-06T13:58:46;7.10;;;6.10;;
37483;SDS011;23337;52.212;9.926;2023-04-06T14:01:12;7.70;;;6.80;;
37483;SDS011;23337;52.212;9.926;2023-04-06T14:03:38;7.07;;;6.37;;
37483;SDS011;23337;52.212;9.926;2023-04-06T14:06:10;7.77;;;6.97;;
37483;SDS011;23337;52.212;9.926;2023-04-06T14:08:36;7.73;;;6.93;;
37483;SDS011;23337;52.212;9.926;2023-04-06T14:11:02;9.33;;;6.37;;
37483;SDS011;23337;52.212;9.926;2023-04-06T14:13:28;7.17;;;6.47;;
37483;SDS011;23337;52.212;9.926;2023-04-06T14:15:54;7.80;;;6.30;;
37483;SDS011;23337;52.212;9.926;2023-04-06T14:18:22;7.33;;;6.40;;
37483;SDS011;23337;52.212;9.926;2023-04-06T14:20:54;8.47;;;6.17;;
37483;SDS011;23337;52.212;9.926;2023-04-06T14:23:21;6.53;;;5.87;;
37483;SDS011;23337;52.212;9.926;2023-04-06T14:25:47;7.83;;;6.70;;
37483;SDS011;23337;52.212;9.926;2023-04-06T14:28:13;7.93;;;7.13;;
37483;SDS011;23337;52.212;9.926;2023-04-06T14:30:39;8.03;;;7.27;;
37483;SDS011;23337;52.212;9.926;2023-04-06T14:33:05;8.30;;;6.93;;
37483;SDS011;23337;52.212;9.926;2023-04-06T14:35:32;9.17;;;6.53;;
37483;SDS011;23337;52.212;9.926;2023-04-06T14:37:58;7.20;;;6.50;;
37483;SDS011;23337;52.212;9.926;2023-04-06T14:40:24;9.80;;;7.43;;
37483;SDS011;23337;52.212;9.926;2023-04-06T14:42:50;7.40;;;6.70;;
37483;SDS011;23337;52.212;9.926;2023-04-06T14:45:16;8.03;;;6.37;;
37483;SDS011;23337;52.212;9.926;2023-04-06T14:47:44;7.70;;;6.93;;